sensor_id;sensor_type;location;lat;lon;timestamp;temperature;humidity
67364;HTU21D;54250;45.572;38.086;2022-09-01T00:01:28;21.16;79.56
67364;HTU21D;54250;45.572;38.086;2022-09-01T00:03:57;21.11;79.75
67364;HTU21D;54250;45.572;38.086;2022-09-01T00:06:30;21.07;79.77
67364;HTU21D;54250;45.572;38.086;2022-09-01T00:08:59;21.05;79.79
67364;HTU21D;54250;45.572;38.086;2022-09-01T00:11:27;21.04;79.78
67364;HTU21D;54250;45.572;38.086;2022-09-01T00:13:55;21.00;79.84
67364;HTU21D;54250;45.572;38.086;2022-09-01T00:16:21;20.94;79.95
67364;HTU21D;54250;45.572;38.086;2022-09-01T00:18:51;20.91;80.01
67364;HTU21D;54250;45.572;38.086;2022-09-01T00:21:22;20.89;80.04
67364;HTU21D;54250;45.572;38.086;2022-09-01T00:23:49;20.86;80.05
67364;HTU21D;54250;45.572;38.086;2022-09-01T00:26:16;20.84;80.17
67364;HTU21D;54250;45.572;38.086;2022-09-01T00:28:42;20.81;80.21
67364;HTU21D;54250;45.572;38.086;2022-09-01T00:31:09;20.78;80.31
67364;HTU21D;54250;45.572;38.086;2022-09-01T00:33:36;20.74;80.46
67364;HTU21D;54250;45.572;38.086;2022-09-01T00:36:03;20.70;80.58
67364;HTU21D;54250;45.572;38.086;2022-09-01T00:38:30;20.70;80.52
67364;HTU21D;54250;45.572;38.086;2022-09-01T00:41:17;20.68;80.51
67364;HTU21D;54250;45.572;38.086;2022-09-01T00:43:52;20.70;80.49
67364;HTU21D;54250;45.572;38.086;2022-09-01T00:46:21;20.66;80.52
67364;HTU21D;54250;45.572;38.086;2022-09-01T00:48:55;20.64;80.62
67364;HTU21D;54250;45.572;38.086;2022-09-01T00:51:25;20.60;80.59
67364;HTU21D;54250;45.572;38.086;2022-09-01T00:53:51;20.58;80.62
67364;HTU21D;54250;45.572;38.086;2022-09-01T00:56:21;20.57;80.53
67364;HTU21D;54250;45.572;38.086;2022-09-01T00:58:49;20.53;80.54
67364;HTU21D;54250;45.572;38.086;2022-09-01T01:01:16;20.50;80.61
67364;HTU21D;54250;45.572;38.086;2022-09-01T01:03:42;20.50;80.62
67364;HTU21D;54250;45.572;38.086;2022-09-01T01:06:14;20.46;80.56
67364;HTU21D;54250;45.572;38.086;2022-09-01T01:08:44;20.47;80.57
67364;HTU21D;54250;45.572;38.086;2022-09-01T01:11:17;20.43;80.51
67364;HTU21D;54250;45.572;38.086;2022-09-01T01:13:51;20.34;80.62
67364;HTU21D;54250;45.572;38.086;2022-09-01T01:16:21;20.35;80.48
67364;HTU21D;54250;45.572;38.086;2022-09-01T01:18:48;20.28;80.57
67364;HTU21D;54250;45.572;38.086;2022-09-01T01:21:18;20.22;80.76
67364;HTU21D;54250;45.572;38.086;2022-09-01T01:26:43;20.09;80.98
67364;HTU21D;54250;45.572;38.086;2022-09-01T01:29:09;20.02;81.36
67364;HTU21D;54250;45.572;38.086;2022-09-01T01:31:36;19.91;81.79
67364;HTU21D;54250;45.572;38.086;2022-09-01T01:34:03;19.81;82.19
67364;HTU21D;54250;45.572;38.086;2022-09-01T01:36:35;19.68;82.65
67364;HTU21D;54250;45.572;38.086;2022-09-01T01:41:33;19.41;83.11
67364;HTU21D;54250;45.572;38.086;2022-09-01T01:44:02;19.28;83.26
67364;HTU21D;54250;45.572;38.086;2022-09-01T01:46:34;19.18;83.37
67364;HTU21D;54250;45.572;38.086;2022-09-01T01:49:02;19.09;83.49
67364;HTU21D;54250;45.572;38.086;2022-09-01T01:51:30;19.02;83.55
67364;HTU21D;54250;45.572;38.086;2022-09-01T01:53:59;18.96;83.66
67364;HTU21D;54250;45.572;38.086;2022-09-01T01:56:32;18.91;83.84
67364;HTU21D;54250;45.572;38.086;2022-09-01T01:59:00;18.82;84.09
67364;HTU21D;54250;45.572;38.086;2022-09-01T02:01:28;18.73;84.52
67364;HTU21D;54250;45.572;38.086;2022-09-01T02:03:58;18.64;84.72
67364;HTU21D;54250;45.572;38.086;2022-09-01T02:06:26;18.58;84.81
67364;HTU21D;54250;45.572;38.086;2022-09-01T02:08:56;18.53;84.81
67364;HTU21D;54250;45.572;38.086;2022-09-01T02:11:24;18.49;84.90
67364;HTU21D;54250;45.572;38.086;2022-09-01T02:13:54;18.46;85.01
67364;HTU21D;54250;45.572;38.086;2022-09-01T02:16:21;18.41;85.12
67364;HTU21D;54250;45.572;38.086;2022-09-01T02:18:48;18.35;85.26
67364;HTU21D;54250;45.572;38.086;2022-09-01T02:21:22;18.35;85.42
67364;HTU21D;54250;45.572;38.086;2022-09-01T02:23:51;18.30;85.51
67364;HTU21D;54250;45.572;38.086;2022-09-01T02:26:36;18.27;85.69
67364;HTU21D;54250;45.572;38.086;2022-09-01T02:29:07;18.23;85.87
67364;HTU21D;54250;45.572;38.086;2022-09-01T02:31:37;18.20;85.95
67364;HTU21D;54250;45.572;38.086;2022-09-01T02:34:07;18.15;86.19
67364;HTU21D;54250;45.572;38.086;2022-09-01T02:36:50;18.08;86.29
67364;HTU21D;54250;45.572;38.086;2022-09-01T02:39:28;18.06;86.56
67364;HTU21D;54250;45.572;38.086;2022-09-01T02:41:55;18.00;86.67
67364;HTU21D;54250;45.572;38.086;2022-09-01T02:44:27;17.97;86.88
67364;HTU21D;54250;45.572;38.086;2022-09-01T02:46:55;17.94;87.01
67364;HTU21D;54250;45.572;38.086;2022-09-01T02:49:24;17.91;87.12
67364;HTU21D;54250;45.572;38.086;2022-09-01T02:51:54;17.90;87.19
67364;HTU21D;54250;45.572;38.086;2022-09-01T02:54:23;17.90;87.27
67364;HTU21D;54250;45.572;38.086;2022-09-01T02:56:51;17.90;87.37
67364;HTU21D;54250;45.572;38.086;2022-09-01T02:59:24;17.91;87.42
67364;HTU21D;54250;45.572;38.086;2022-09-01T03:01:53;17.93;87.38
67364;HTU21D;54250;45.572;38.086;2022-09-01T03:04:21;17.97;87.48
67364;HTU21D;54250;45.572;38.086;2022-09-01T03:06:48;17.99;87.45
67364;HTU21D;54250;45.572;38.086;2022-09-01T03:09:20;18.06;87.35
67364;HTU21D;54250;45.572;38.086;2022-09-01T03:11:49;18.13;87.41
67364;HTU21D;54250;45.572;38.086;2022-09-01T03:14:16;18.22;87.46
67364;HTU21D;54250;45.572;38.086;2022-09-01T03:16:43;18.30;87.41
67364;HTU21D;54250;45.572;38.086;2022-09-01T03:19:09;18.40;87.51
67364;HTU21D;54250;45.572;38.086;2022-09-01T03:21:41;18.52;87.52
67364;HTU21D;54250;45.572;38.086;2022-09-01T03:24:14;18.66;87.50
67364;HTU21D;54250;45.572;38.086;2022-09-01T03:26:43;18.81;87.33
67364;HTU21D;54250;45.572;38.086;2022-09-01T03:29:09;18.95;87.23
67364;HTU21D;54250;45.572;38.086;2022-09-01T03:31:36;19.10;87.06
67364;HTU21D;54250;45.572;38.086;2022-09-01T03:34:03;19.25;86.93
67364;HTU21D;54250;45.572;38.086;2022-09-01T03:36:35;19.40;86.86
67364;HTU21D;54250;45.572;38.086;2022-09-01T03:39:01;19.56;86.75
67364;HTU21D;54250;45.572;38.086;2022-09-01T03:41:30;19.74;86.48
67364;HTU21D;54250;45.572;38.086;2022-09-01T03:43:56;20.03;85.92
67364;HTU21D;54250;45.572;38.086;2022-09-01T03:46:26;20.30;85.46
67364;HTU21D;54250;45.572;38.086;2022-09-01T03:48:57;20.62;85.13
67364;HTU21D;54250;45.572;38.086;2022-09-01T03:51:29;20.93;84.46
67364;HTU21D;54250;45.572;38.086;2022-09-01T03:53:59;21.53;83.33
67364;HTU21D;54250;45.572;38.086;2022-09-01T03:56:27;21.98;82.36
67364;HTU21D;54250;45.572;38.086;2022-09-01T03:58:57;22.53;81.68
67364;HTU21D;54250;45.572;38.086;2022-09-01T04:01:26;23.73;78.95
67364;HTU21D;54250;45.572;38.086;2022-09-01T04:03:53;25.32;75.26
67364;HTU21D;54250;45.572;38.086;2022-09-01T04:06:23;26.72;72.13
67364;HTU21D;54250;45.572;38.086;2022-09-01T04:08:50;27.93;69.52
67364;HTU21D;54250;45.572;38.086;2022-09-01T04:11:20;29.05;67.14
67364;HTU21D;54250;45.572;38.086;2022-09-01T04:13:51;30.08;65.33
67364;HTU21D;54250;45.572;38.086;2022-09-01T04:16:26;30.84;63.57
67364;HTU21D;54250;45.572;38.086;2022-09-01T04:19:13;31.69;61.92
67364;HTU21D;54250;45.572;38.086;2022-09-01T04:21:52;32.38;60.28
67364;HTU21D;54250;45.572;38.086;2022-09-01T04:24:20;32.99;58.97
67364;HTU21D;54250;45.572;38.086;2022-09-01T04:26:50;33.75;57.13
67364;HTU21D;54250;45.572;38.086;2022-09-01T04:29:19;34.39;55.81
67364;HTU21D;54250;45.572;38.086;2022-09-01T04:31:59;35.04;54.07
67364;HTU21D;54250;45.572;38.086;2022-09-01T04:34:34;35.60;53.10
67364;HTU21D;54250;45.572;38.086;2022-09-01T04:37:19;36.06;52.11
67364;HTU21D;54250;45.572;38.086;2022-09-01T04:39:53;35.30;53.11
67364;HTU21D;54250;45.572;38.086;2022-09-01T04:42:21;34.11;55.42
67364;HTU21D;54250;45.572;38.086;2022-09-01T04:44:52;33.22;56.95
67364;HTU21D;54250;45.572;38.086;2022-09-01T04:47:20;33.28;56.63
67364;HTU21D;54250;45.572;38.086;2022-09-01T04:49:57;34.60;53.16
67364;HTU21D;54250;45.572;38.086;2022-09-01T04:52:26;35.54;50.60
67364;HTU21D;54250;45.572;38.086;2022-09-01T04:54:53;36.30;49.34
67364;HTU21D;54250;45.572;38.086;2022-09-01T04:57:21;37.06;47.57
67364;HTU21D;54250;45.572;38.086;2022-09-01T04:59:47;37.50;46.28
67364;HTU21D;54250;45.572;38.086;2022-09-01T05:02:15;37.94;45.19
67364;HTU21D;54250;45.572;38.086;2022-09-01T05:04:41;38.71;43.68
67364;HTU21D;54250;45.572;38.086;2022-09-01T05:07:12;39.37;42.84
67364;HTU21D;54250;45.572;38.086;2022-09-01T05:09:39;40.01;41.26
67364;HTU21D;54250;45.572;38.086;2022-09-01T05:12:08;40.61;40.21
67364;HTU21D;54250;45.572;38.086;2022-09-01T05:14:45;41.54;38.36
67364;HTU21D;54250;45.572;38.086;2022-09-01T05:17:12;42.20;37.07
67364;HTU21D;54250;45.572;38.086;2022-09-01T05:19:41;42.60;35.83
67364;HTU21D;54250;45.572;38.086;2022-09-01T05:22:09;43.24;34.83
67364;HTU21D;54250;45.572;38.086;2022-09-01T05:24:40;43.67;33.86
67364;HTU21D;54250;45.572;38.086;2022-09-01T05:27:07;43.91;33.03
67364;HTU21D;54250;45.572;38.086;2022-09-01T05:29:36;44.00;32.62
67364;HTU21D;54250;45.572;38.086;2022-09-01T05:32:07;44.27;31.31
67364;HTU21D;54250;45.572;38.086;2022-09-01T05:34:38;44.54;30.53
67364;HTU21D;54250;45.572;38.086;2022-09-01T05:37:07;45.07;29.95
67364;HTU21D;54250;45.572;38.086;2022-09-01T05:39:36;45.29;29.98
67364;HTU21D;54250;45.572;38.086;2022-09-01T05:42:05;45.63;29.88
67364;HTU21D;54250;45.572;38.086;2022-09-01T05:44:37;46.30;29.38
67364;HTU21D;54250;45.572;38.086;2022-09-01T05:47:09;46.91;28.55
67364;HTU21D;54250;45.572;38.086;2022-09-01T05:49:37;46.97;27.44
67364;HTU21D;54250;45.572;38.086;2022-09-01T05:52:06;46.97;27.10
67364;HTU21D;54250;45.572;38.086;2022-09-01T05:54:36;47.24;27.45
67364;HTU21D;54250;45.572;38.086;2022-09-01T05:57:03;47.17;27.11
67364;HTU21D;54250;45.572;38.086;2022-09-01T05:59:29;47.29;26.57
67364;HTU21D;54250;45.572;38.086;2022-09-01T06:02:03;47.58;26.01
67364;HTU21D;54250;45.572;38.086;2022-09-01T06:04:34;48.15;25.69
67364;HTU21D;54250;45.572;38.086;2022-09-01T06:07:14;48.27;24.75
67364;HTU21D;54250;45.572;38.086;2022-09-01T06:09:46;48.32;25.08
67364;HTU21D;54250;45.572;38.086;2022-09-01T06:12:15;48.73;24.75
67364;HTU21D;54250;45.572;38.086;2022-09-01T06:14:52;48.90;24.50
67364;HTU21D;54250;45.572;38.086;2022-09-01T06:17:20;49.06;24.08
67364;HTU21D;54250;45.572;38.086;2022-09-01T06:19:51;49.32;24.18
67364;HTU21D;54250;45.572;38.086;2022-09-01T06:22:19;49.70;23.19
67364;HTU21D;54250;45.572;38.086;2022-09-01T06:24:46;50.15;23.66
67364;HTU21D;54250;45.572;38.086;2022-09-01T06:27:13;50.56;22.71
67364;HTU21D;54250;45.572;38.086;2022-09-01T06:29:43;50.88;22.78
67364;HTU21D;54250;45.572;38.086;2022-09-01T06:32:10;51.16;22.11
67364;HTU21D;54250;45.572;38.086;2022-09-01T06:34:40;51.39;22.17
67364;HTU21D;54250;45.572;38.086;2022-09-01T06:37:11;51.60;21.73
67364;HTU21D;54250;45.572;38.086;2022-09-01T06:39:39;51.90;22.27
67364;HTU21D;54250;45.572;38.086;2022-09-01T06:42:06;52.15;21.54
67364;HTU21D;54250;45.572;38.086;2022-09-01T06:44:46;52.17;21.55
67364;HTU21D;54250;45.572;38.086;2022-09-01T06:47:12;51.53;22.13
67364;HTU21D;54250;45.572;38.086;2022-09-01T06:49:40;51.70;22.20
67364;HTU21D;54250;45.572;38.086;2022-09-01T06:52:13;51.81;21.84
67364;HTU21D;54250;45.572;38.086;2022-09-01T06:54:40;51.30;21.87
67364;HTU21D;54250;45.572;38.086;2022-09-01T06:57:08;50.92;22.14
67364;HTU21D;54250;45.572;38.086;2022-09-01T06:59:35;51.05;21.89
67364;HTU21D;54250;45.572;38.086;2022-09-01T07:02:03;51.54;21.55
67364;HTU21D;54250;45.572;38.086;2022-09-01T07:04:50;52.14;21.28
67364;HTU21D;54250;45.572;38.086;2022-09-01T07:07:17;52.13;20.76
67364;HTU21D;54250;45.572;38.086;2022-09-01T07:10:01;52.15;21.05
67364;HTU21D;54250;45.572;38.086;2022-09-01T07:12:35;52.20;21.46
67364;HTU21D;54250;45.572;38.086;2022-09-01T07:15:02;51.40;22.29
67364;HTU21D;54250;45.572;38.086;2022-09-01T07:17:29;49.93;23.64
67364;HTU21D;54250;45.572;38.086;2022-09-01T07:19:56;48.56;24.89
67364;HTU21D;54250;45.572;38.086;2022-09-01T07:22:23;47.70;26.01
67364;HTU21D;54250;45.572;38.086;2022-09-01T07:24:50;47.39;26.10
67364;HTU21D;54250;45.572;38.086;2022-09-01T07:27:44;48.95;24.57
67364;HTU21D;54250;45.572;38.086;2022-09-01T07:30:17;50.49;23.38
67364;HTU21D;54250;45.572;38.086;2022-09-01T07:32:45;51.27;21.76
67364;HTU21D;54250;45.572;38.086;2022-09-01T07:35:14;48.94;23.98
67364;HTU21D;54250;45.572;38.086;2022-09-01T07:37:42;47.46;25.85
67364;HTU21D;54250;45.572;38.086;2022-09-01T07:40:12;47.25;26.39
67364;HTU21D;54250;45.572;38.086;2022-09-01T07:43:22;48.66;25.07
67364;HTU21D;54250;45.572;38.086;2022-09-01T07:46:07;49.49;24.43
67364;HTU21D;54250;45.572;38.086;2022-09-01T07:48:35;49.52;24.24
67364;HTU21D;54250;45.572;38.086;2022-09-01T07:51:01;49.60;24.01
67364;HTU21D;54250;45.572;38.086;2022-09-01T07:53:31;49.94;23.96
67364;HTU21D;54250;45.572;38.086;2022-09-01T07:56:04;50.48;23.36
67364;HTU21D;54250;45.572;38.086;2022-09-01T07:58:38;50.92;23.13
67364;HTU21D;54250;45.572;38.086;2022-09-01T08:01:08;51.19;22.86
67364;HTU21D;54250;45.572;38.086;2022-09-01T08:03:37;51.50;22.60
67364;HTU21D;54250;45.572;38.086;2022-09-01T08:06:07;51.63;22.12
67364;HTU21D;54250;45.572;38.086;2022-09-01T08:08:35;51.65;22.27
67364;HTU21D;54250;45.572;38.086;2022-09-01T08:11:02;51.95;22.15
67364;HTU21D;54250;45.572;38.086;2022-09-01T08:13:29;52.23;22.07
67364;HTU21D;54250;45.572;38.086;2022-09-01T08:15:55;52.51;21.62
67364;HTU21D;54250;45.572;38.086;2022-09-01T08:18:21;52.72;21.24
67364;HTU21D;54250;45.572;38.086;2022-09-01T08:20:49;52.86;20.91
67364;HTU21D;54250;45.572;38.086;2022-09-01T08:23:38;52.88;21.11
67364;HTU21D;54250;45.572;38.086;2022-09-01T08:26:15;52.83;21.08
67364;HTU21D;54250;45.572;38.086;2022-09-01T08:28:41;52.84;21.18
67364;HTU21D;54250;45.572;38.086;2022-09-01T08:31:10;52.93;20.97
67364;HTU21D;54250;45.572;38.086;2022-09-01T08:33:41;52.95;21.00
67364;HTU21D;54250;45.572;38.086;2022-09-01T08:36:09;53.02;20.96
67364;HTU21D;54250;45.572;38.086;2022-09-01T08:38:36;53.00;20.84
67364;HTU21D;54250;45.572;38.086;2022-09-01T08:41:05;53.13;20.66
67364;HTU21D;54250;45.572;38.086;2022-09-01T08:44:07;53.01;20.74
67364;HTU21D;54250;45.572;38.086;2022-09-01T08:46:38;52.76;21.07
67364;HTU21D;54250;45.572;38.086;2022-09-01T08:49:18;52.81;20.99
67364;HTU21D;54250;45.572;38.086;2022-09-01T08:54:53;52.69;21.12
67364;HTU21D;54250;45.572;38.086;2022-09-01T08:57:31;52.66;20.62
67364;HTU21D;54250;45.572;38.086;2022-09-01T09:00:24;52.37;20.92
67364;HTU21D;54250;45.572;38.086;2022-09-01T09:08:54;51.30;22.59
67364;HTU21D;54250;45.572;38.086;2022-09-01T09:17:04;48.91;25.25
67364;HTU21D;54250;45.572;38.086;2022-09-01T09:19:41;48.97;25.11
67364;HTU21D;54250;45.572;38.086;2022-09-01T09:22:13;48.05;26.20
67364;HTU21D;54250;45.572;38.086;2022-09-01T09:24:50;47.11;27.02
67364;HTU21D;54250;45.572;38.086;2022-09-01T09:29:52;44.64;29.73
67364;HTU21D;54250;45.572;38.086;2022-09-01T09:32:20;43.86;29.98
67364;HTU21D;54250;45.572;38.086;2022-09-01T09:34:47;43.66;30.42
67364;HTU21D;54250;45.572;38.086;2022-09-01T09:37:27;44.26;29.48
67364;HTU21D;54250;45.572;38.086;2022-09-01T09:42:39;44.20;28.71
67364;HTU21D;54250;45.572;38.086;2022-09-01T09:45:20;43.26;29.68
67364;HTU21D;54250;45.572;38.086;2022-09-01T09:47:46;42.76;29.89
67364;HTU21D;54250;45.572;38.086;2022-09-01T09:52:42;41.39;30.69
67364;HTU21D;54250;45.572;38.086;2022-09-01T09:55:27;41.04;31.21
67364;HTU21D;54250;45.572;38.086;2022-09-01T09:57:57;40.50;31.80
67364;HTU21D;54250;45.572;38.086;2022-09-01T10:00:31;39.92;33.28
67364;HTU21D;54250;45.572;38.086;2022-09-01T10:03:05;39.54;33.86
67364;HTU21D;54250;45.572;38.086;2022-09-01T10:08:14;38.98;35.16
67364;HTU21D;54250;45.572;38.086;2022-09-01T10:10:59;38.73;35.55
67364;HTU21D;54250;45.572;38.086;2022-09-01T10:13:26;38.45;35.89
67364;HTU21D;54250;45.572;38.086;2022-09-01T10:15:58;38.20;36.33
67364;HTU21D;54250;45.572;38.086;2022-09-01T10:18:29;38.05;37.27
67364;HTU21D;54250;45.572;38.086;2022-09-01T10:21:20;37.87;38.24
67364;HTU21D;54250;45.572;38.086;2022-09-01T10:23:46;37.65;39.00
67364;HTU21D;54250;45.572;38.086;2022-09-01T10:26:26;37.58;39.08
67364;HTU21D;54250;45.572;38.086;2022-09-01T10:28:59;37.35;39.56
67364;HTU21D;54250;45.572;38.086;2022-09-01T10:31:26;37.00;40.38
67364;HTU21D;54250;45.572;38.086;2022-09-01T10:33:53;36.71;41.43
67364;HTU21D;54250;45.572;38.086;2022-09-01T10:36:20;36.55;41.74
67364;HTU21D;54250;45.572;38.086;2022-09-01T10:38:47;36.45;42.67
67364;HTU21D;54250;45.572;38.086;2022-09-01T10:44:17;36.43;42.57
67364;HTU21D;54250;45.572;38.086;2022-09-01T10:46:44;36.45;43.02
67364;HTU21D;54250;45.572;38.086;2022-09-01T10:52:03;36.39;41.51
67364;HTU21D;54250;45.572;38.086;2022-09-01T10:59:49;36.03;41.16
67364;HTU21D;54250;45.572;38.086;2022-09-01T11:02:17;35.92;39.98
67364;HTU21D;54250;45.572;38.086;2022-09-01T11:10:23;35.72;40.62
67364;HTU21D;54250;45.572;38.086;2022-09-01T11:15:37;35.54;41.18
67364;HTU21D;54250;45.572;38.086;2022-09-01T11:20:51;35.44;42.79
67364;HTU21D;54250;45.572;38.086;2022-09-01T11:23:26;35.47;43.19
67364;HTU21D;54250;45.572;38.086;2022-09-01T11:28:59;35.29;45.34
67364;HTU21D;54250;45.572;38.086;2022-09-01T11:31:39;35.24;45.99
67364;HTU21D;54250;45.572;38.086;2022-09-01T11:46:50;34.57;49.58
67364;HTU21D;54250;45.572;38.086;2022-09-01T11:49:30;34.41;50.21
67364;HTU21D;54250;45.572;38.086;2022-09-01T11:51:58;34.27;50.83
67364;HTU21D;54250;45.572;38.086;2022-09-01T11:54:27;34.21;50.85
67364;HTU21D;54250;45.572;38.086;2022-09-01T11:56:54;34.10;50.97
67364;HTU21D;54250;45.572;38.086;2022-09-01T11:59:31;34.05;51.05
67364;HTU21D;54250;45.572;38.086;2022-09-01T12:01:58;33.97;51.02
67364;HTU21D;54250;45.572;38.086;2022-09-01T12:04:29;33.93;50.97
67364;HTU21D;54250;45.572;38.086;2022-09-01T12:09:46;33.87;51.11
67364;HTU21D;54250;45.572;38.086;2022-09-01T12:12:35;33.79;50.76
67364;HTU21D;54250;45.572;38.086;2022-09-01T12:15:23;33.63;50.88
67364;HTU21D;54250;45.572;38.086;2022-09-01T12:17:50;33.52;51.25
67364;HTU21D;54250;45.572;38.086;2022-09-01T12:20:30;33.47;51.85
67364;HTU21D;54250;45.572;38.086;2022-09-01T12:22:58;33.41;51.56
67364;HTU21D;54250;45.572;38.086;2022-09-01T12:25:30;33.21;52.07
67364;HTU21D;54250;45.572;38.086;2022-09-01T12:28:03;33.08;51.93
67364;HTU21D;54250;45.572;38.086;2022-09-01T12:30:31;32.99;51.56
67364;HTU21D;54250;45.572;38.086;2022-09-01T12:33:10;32.87;51.27
67364;HTU21D;54250;45.572;38.086;2022-09-01T12:35:39;32.79;50.83
67364;HTU21D;54250;45.572;38.086;2022-09-01T12:38:25;32.69;50.83
67364;HTU21D;54250;45.572;38.086;2022-09-01T12:40:55;32.61;50.59
67364;HTU21D;54250;45.572;38.086;2022-09-01T12:43:37;32.53;49.72
67364;HTU21D;54250;45.572;38.086;2022-09-01T12:46:05;32.46;49.84
67364;HTU21D;54250;45.572;38.086;2022-09-01T12:48:39;32.38;50.59
67364;HTU21D;54250;45.572;38.086;2022-09-01T12:51:14;32.29;50.61
67364;HTU21D;54250;45.572;38.086;2022-09-01T12:53:59;32.24;50.60
67364;HTU21D;54250;45.572;38.086;2022-09-01T12:56:29;32.16;50.88
67364;HTU21D;54250;45.572;38.086;2022-09-01T12:59:20;32.08;50.30
67364;HTU21D;54250;45.572;38.086;2022-09-01T13:01:47;32.00;50.16
67364;HTU21D;54250;45.572;38.086;2022-09-01T13:04:25;31.94;50.10
67364;HTU21D;54250;45.572;38.086;2022-09-01T13:06:55;31.85;50.47
67364;HTU21D;54250;45.572;38.086;2022-09-01T13:09:21;31.82;50.45
67364;HTU21D;54250;45.572;38.086;2022-09-01T13:11:48;31.80;50.53
67364;HTU21D;54250;45.572;38.086;2022-09-01T13:14:14;31.80;50.43
67364;HTU21D;54250;45.572;38.086;2022-09-01T13:16:41;31.75;50.52
67364;HTU21D;54250;45.572;38.086;2022-09-01T13:19:08;31.73;50.88
67364;HTU21D;54250;45.572;38.086;2022-09-01T13:21:35;31.66;51.93
67364;HTU21D;54250;45.572;38.086;2022-09-01T13:24:05;31.57;52.72
67364;HTU21D;54250;45.572;38.086;2022-09-01T13:26:32;31.51;53.23
67364;HTU21D;54250;45.572;38.086;2022-09-01T13:28:58;31.43;53.85
67364;HTU21D;54250;45.572;38.086;2022-09-01T13:31:24;31.36;54.81
67364;HTU21D;54250;45.572;38.086;2022-09-01T13:33:50;31.27;55.00
67364;HTU21D;54250;45.572;38.086;2022-09-01T13:36:17;31.14;55.15
67364;HTU21D;54250;45.572;38.086;2022-09-01T13:38:44;31.06;55.84
67364;HTU21D;54250;45.572;38.086;2022-09-01T13:41:10;30.98;56.04
67364;HTU21D;54250;45.572;38.086;2022-09-01T13:43:36;30.96;55.87
67364;HTU21D;54250;45.572;38.086;2022-09-01T13:46:05;30.90;56.27
67364;HTU21D;54250;45.572;38.086;2022-09-01T13:48:35;30.82;56.71
67364;HTU21D;54250;45.572;38.086;2022-09-01T13:51:01;30.76;56.94
67364;HTU21D;54250;45.572;38.086;2022-09-01T13:53:27;30.70;57.12
67364;HTU21D;54250;45.572;38.086;2022-09-01T13:55:53;30.62;57.48
67364;HTU21D;54250;45.572;38.086;2022-09-01T13:58:19;30.59;57.37
67364;HTU21D;54250;45.572;38.086;2022-09-01T14:00:46;30.52;57.57
67364;HTU21D;54250;45.572;38.086;2022-09-01T14:03:19;30.47;57.98
67364;HTU21D;54250;45.572;38.086;2022-09-01T14:05:47;30.38;57.64
67364;HTU21D;54250;45.572;38.086;2022-09-01T14:08:15;30.32;57.72
67364;HTU21D;54250;45.572;38.086;2022-09-01T14:10:44;30.23;57.95
67364;HTU21D;54250;45.572;38.086;2022-09-01T14:13:11;30.12;58.27
67364;HTU21D;54250;45.572;38.086;2022-09-01T14:15:37;30.05;58.38
67364;HTU21D;54250;45.572;38.086;2022-09-01T14:18:04;29.96;58.41
67364;HTU21D;54250;45.572;38.086;2022-09-01T14:20:34;29.87;58.68
67364;HTU21D;54250;45.572;38.086;2022-09-01T14:23:04;29.82;58.72
67364;HTU21D;54250;45.572;38.086;2022-09-01T14:25:31;29.73;58.77
67364;HTU21D;54250;45.572;38.086;2022-09-01T14:27:58;29.64;58.80
67364;HTU21D;54250;45.572;38.086;2022-09-01T14:30:27;29.56;58.86
67364;HTU21D;54250;45.572;38.086;2022-09-01T14:32:53;29.44;58.96
67364;HTU21D;54250;45.572;38.086;2022-09-01T14:35:21;29.32;58.88
67364;HTU21D;54250;45.572;38.086;2022-09-01T14:37:53;29.17;59.35
67364;HTU21D;54250;45.572;38.086;2022-09-01T14:40:21;29.02;59.44
67364;HTU21D;54250;45.572;38.086;2022-09-01T14:42:50;28.90;59.50
67364;HTU21D;54250;45.572;38.086;2022-09-01T14:45:19;28.78;59.64
67364;HTU21D;54250;45.572;38.086;2022-09-01T14:47:47;28.70;59.67
67364;HTU21D;54250;45.572;38.086;2022-09-01T14:50:14;28.58;59.68
67364;HTU21D;54250;45.572;38.086;2022-09-01T14:52:41;28.48;59.80
67364;HTU21D;54250;45.572;38.086;2022-09-01T14:55:07;28.39;60.02
67364;HTU21D;54250;45.572;38.086;2022-09-01T14:57:33;28.28;60.16
67364;HTU21D;54250;45.572;38.086;2022-09-01T15:00:00;28.17;60.26
67364;HTU21D;54250;45.572;38.086;2022-09-01T15:02:26;28.09;60.44
67364;HTU21D;54250;45.572;38.086;2022-09-01T15:04:54;27.98;60.60
67364;HTU21D;54250;45.572;38.086;2022-09-01T15:07:21;27.87;60.82
67364;HTU21D;54250;45.572;38.086;2022-09-01T15:09:47;27.75;60.96
67364;HTU21D;54250;45.572;38.086;2022-09-01T15:12:13;27.63;61.17
67364;HTU21D;54250;45.572;38.086;2022-09-01T15:14:39;27.54;61.30
67364;HTU21D;54250;45.572;38.086;2022-09-01T15:17:06;27.46;60.97
67364;HTU21D;54250;45.572;38.086;2022-09-01T15:19:32;27.41;60.82
67364;HTU21D;54250;45.572;38.086;2022-09-01T15:21:58;27.35;60.92
67364;HTU21D;54250;45.572;38.086;2022-09-01T15:24:24;27.24;61.09
67364;HTU21D;54250;45.572;38.086;2022-09-01T15:26:50;27.19;61.09
67364;HTU21D;54250;45.572;38.086;2022-09-01T15:29:16;27.09;61.05
67364;HTU21D;54250;45.572;38.086;2022-09-01T15:31:43;27.04;61.05
67364;HTU21D;54250;45.572;38.086;2022-09-01T15:34:10;26.95;61.25
67364;HTU21D;54250;45.572;38.086;2022-09-01T15:36:39;26.83;61.47
67364;HTU21D;54250;45.572;38.086;2022-09-01T15:39:06;26.71;61.79
67364;HTU21D;54250;45.572;38.086;2022-09-01T15:41:33;26.61;62.08
67364;HTU21D;54250;45.572;38.086;2022-09-01T15:44:01;26.46;62.42
67364;HTU21D;54250;45.572;38.086;2022-09-01T15:46:30;26.32;62.95
67364;HTU21D;54250;45.572;38.086;2022-09-01T15:49:02;26.18;63.24
67364;HTU21D;54250;45.572;38.086;2022-09-01T15:51:41;26.05;63.60
67364;HTU21D;54250;45.572;38.086;2022-09-01T15:54:14;25.91;63.91
67364;HTU21D;54250;45.572;38.086;2022-09-01T15:56:41;25.80;63.94
67364;HTU21D;54250;45.572;38.086;2022-09-01T15:59:08;25.72;64.24
67364;HTU21D;54250;45.572;38.086;2022-09-01T16:01:37;25.64;64.51
67364;HTU21D;54250;45.572;38.086;2022-09-01T16:04:05;25.54;64.76
67364;HTU21D;54250;45.572;38.086;2022-09-01T16:06:31;25.47;64.85
67364;HTU21D;54250;45.572;38.086;2022-09-01T16:08:57;25.37;65.08
67364;HTU21D;54250;45.572;38.086;2022-09-01T16:11:24;25.29;65.23
67364;HTU21D;54250;45.572;38.086;2022-09-01T16:13:52;25.18;65.40
67364;HTU21D;54250;45.572;38.086;2022-09-01T16:22:24;24.86;66.11
67364;HTU21D;54250;45.572;38.086;2022-09-01T16:24:53;24.78;66.33
67364;HTU21D;54250;45.572;38.086;2022-09-01T16:27:26;24.66;66.75
67364;HTU21D;54250;45.572;38.086;2022-09-01T16:30:06;24.58;67.03
67364;HTU21D;54250;45.572;38.086;2022-09-01T16:32:34;24.42;67.36
67364;HTU21D;54250;45.572;38.086;2022-09-01T16:35:00;24.32;67.72
67364;HTU21D;54250;45.572;38.086;2022-09-01T16:43:05;23.98;68.63
67364;HTU21D;54250;45.572;38.086;2022-09-01T16:51:32;23.59;69.94